createdAt,value
2017-11-16T00:00:49.826Z,90.20
2017-11-16T00:03:17.965Z,90.10
2017-11-16T00:05:46.853Z,90.00
2017-11-16T00:08:15.789Z,89.70
2017-11-16T00:10:43.911Z,89.60
2017-11-16T00:13:12.254Z,89.70
2017-11-16T00:15:41.174Z,90.10
2017-11-16T00:18:09.293Z,90.10
2017-11-16T00:20:37.433Z,90.20
2017-11-16T00:23:06.332Z,89.50
2017-11-16T00:25:35.233Z,89.50
2017-11-16T00:28:03.363Z,89.00
2017-11-16T00:30:31.500Z,88.30
2017-11-16T00:32:59.634Z,88.50
2017-11-16T00:35:28.544Z,88.50
2017-11-16T00:37:56.678Z,88.50
2017-11-16T00:40:24.797Z,88.50
2017-11-16T00:42:52.936Z,89.30
2017-11-16T00:45:21.829Z,89.20
2017-11-16T00:47:50.740Z,89.70
2017-11-16T00:50:18.848Z,89.70
2017-11-16T00:52:46.994Z,89.20
2017-11-16T00:55:15.148Z,89.10
2017-11-16T00:57:43.269Z,89.30
2017-11-16T01:00:11.406Z,88.50
2017-11-16T01:02:39.544Z,88.30
2017-11-16T01:05:07.740Z,88.80
2017-11-16T01:07:35.879Z,89.30
2017-11-16T01:10:04.017Z,88.60
2017-11-16T01:12:32.145Z,88.50
2017-11-16T01:15:00.297Z,88.50
2017-11-16T01:17:28.508Z,88.00
2017-11-16T01:19:56.648Z,87.90
2017-11-16T01:22:25.545Z,88.10
2017-11-16T01:24:54.433Z,87.90
2017-11-16T01:27:23.352Z,88.00
2017-11-16T01:29:51.464Z,87.90
2017-11-16T01:32:19.597Z,88.00
2017-11-16T01:34:47.722Z,87.70
2017-11-16T01:37:15.869Z,87.50
2017-11-16T01:39:44.016Z,88.00
2017-11-16T01:42:12.778Z,88.30
2017-11-16T01:44:41.669Z,88.10
2017-11-16T01:47:09.839Z,88.10
2017-11-16T01:49:37.947Z,88.80
2017-11-16T01:52:06.073Z,88.20
2017-11-16T01:54:34.982Z,88.80
2017-11-16T01:57:03.116Z,88.80
2017-11-16T01:59:31.277Z,88.30
2017-11-16T02:01:59.395Z,87.80
2017-11-16T02:04:28.285Z,87.90
2017-11-16T02:06:56.434Z,87.80
2017-11-16T02:09:24.608Z,87.90
2017-11-16T02:11:52.751Z,86.70
2017-11-16T02:14:20.865Z,87.10
2017-11-16T02:16:49.774Z,86.70
2017-11-16T02:19:17.928Z,86.70
2017-11-16T02:21:46.826Z,87.20
2017-11-16T02:24:14.968Z,87.10
2017-11-16T02:26:43.088Z,87.50
2017-11-16T02:29:11.215Z,88.90
2017-11-16T02:31:39.369Z,88.20
2017-11-16T02:34:07.491Z,88.50
2017-11-16T02:36:35.701Z,89.00
2017-11-16T02:39:03.826Z,89.50
2017-11-16T02:41:31.982Z,88.60
2017-11-16T02:44:00.946Z,89.40
2017-11-16T02:46:29.074Z,88.80
2017-11-16T02:48:57.314Z,89.00
2017-11-16T02:51:25.444Z,88.00
2017-11-16T02:53:53.576Z,88.80
2017-11-16T02:56:22.476Z,87.20
2017-11-16T02:58:51.380Z,88.00
2017-11-16T03:01:19.501Z,88.00
2017-11-16T03:03:47.642Z,88.90
2017-11-16T03:06:15.765Z,88.80
2017-11-16T03:08:44.773Z,89.00
2017-11-16T03:11:12.929Z,88.90
2017-11-16T03:13:41.039Z,88.20
2017-11-16T03:16:09.178Z,89.20
2017-11-16T03:18:38.067Z,89.90
2017-11-16T03:21:07.005Z,88.20
2017-11-16T03:23:35.135Z,88.10
2017-11-16T03:26:04.041Z,88.40
2017-11-16T03:28:32.177Z,88.40
2017-11-16T03:31:00.289Z,88.00
2017-11-16T03:33:28.422Z,88.00
2017-11-16T03:35:56.565Z,88.30
2017-11-16T03:38:24.688Z,87.80
2017-11-16T03:40:52.805Z,87.50
2017-11-16T03:43:21.714Z,88.30
2017-11-16T03:45:49.842Z,88.30
2017-11-16T03:48:18.027Z,88.80
2017-11-16T03:50:46.146Z,89.50
2017-11-16T03:53:14.299Z,88.60
2017-11-16T03:55:42.443Z,88.10
2017-11-16T03:58:10.577Z,88.30
2017-11-16T04:00:39.494Z,88.30
2017-11-16T04:03:07.618Z,88.30
2017-11-16T04:05:35.769Z,88.40
2017-11-16T04:08:03.914Z,88.50
2017-11-16T04:10:32.036Z,88.90
2017-11-16T04:13:00.172Z,87.70
2017-11-16T04:15:28.286Z,87.90
2017-11-16T04:17:56.421Z,87.90
2017-11-16T04:20:24.553Z,88.20
2017-11-16T04:22:52.725Z,88.70
2017-11-16T04:25:21.672Z,88.40
2017-11-16T04:27:49.806Z,88.40
2017-11-16T04:30:17.936Z,88.30
2017-11-16T04:32:46.060Z,88.30
2017-11-16T04:35:14.245Z,88.40
2017-11-16T04:37:42.377Z,88.70
2017-11-16T04:40:10.522Z,89.00
2017-11-16T04:42:38.645Z,89.20
2017-11-16T04:45:06.761Z,88.40
2017-11-16T04:47:34.902Z,88.50
2017-11-16T04:50:03.030Z,88.40
2017-11-16T04:52:31.969Z,88.70
2017-11-16T04:55:00.088Z,88.60
2017-11-16T04:57:29.003Z,88.40
2017-11-16T04:59:57.174Z,88.30
2017-11-16T05:02:25.326Z,88.50
2017-11-16T05:04:54.372Z,88.40
2017-11-16T05:07:22.529Z,88.30
2017-11-16T05:09:50.672Z,88.80
2017-11-16T05:12:19.567Z,88.30
2017-11-16T05:14:48.494Z,87.80
2017-11-16T05:17:16.656Z,87.80
2017-11-16T05:19:44.825Z,87.20
2017-11-16T05:22:12.944Z,87.30
2017-11-16T05:24:41.082Z,87.50
2017-11-16T05:27:09.300Z,87.50
2017-11-16T05:29:38.213Z,88.80
2017-11-16T05:32:06.333Z,88.70
2017-11-16T05:34:34.490Z,88.20
2017-11-16T05:37:02.617Z,88.70
2017-11-16T05:39:31.509Z,88.20
2017-11-16T05:42:00.417Z,88.00
2017-11-16T05:44:28.529Z,88.00
2017-11-16T05:46:56.705Z,87.10
2017-11-16T05:49:24.817Z,86.60
2017-11-16T05:51:53.725Z,86.50
2017-11-16T05:54:21.927Z,86.50
2017-11-16T05:56:50.510Z,86.60
2017-11-16T05:59:18.634Z,86.40
2017-11-16T06:01:47.579Z,86.70
2017-11-16T06:04:16.502Z,87.50
2017-11-16T06:06:44.642Z,87.50
2017-11-16T06:09:13.552Z,88.00
2017-11-16T06:11:41.705Z,88.00
2017-11-16T06:14:09.831Z,87.10
2017-11-16T06:16:38.753Z,85.90
2017-11-16T06:19:06.958Z,85.90
2017-11-16T06:21:35.089Z,86.20
2017-11-16T06:24:03.217Z,84.20
2017-11-16T06:26:32.153Z,86.40
2017-11-16T06:29:00.275Z,86.20
2017-11-16T06:31:28.509Z,86.30
2017-11-16T06:33:57.429Z,86.80
2017-11-16T06:36:25.558Z,86.80
2017-11-16T06:38:53.689Z,86.80
2017-11-16T06:41:21.923Z,85.60
2017-11-16T06:43:50.261Z,85.80
2017-11-16T06:46:18.570Z,86.50
2017-11-16T06:48:46.686Z,86.50
2017-11-16T06:51:15.645Z,85.90
2017-11-16T06:53:43.767Z,85.90
2017-11-16T06:56:12.677Z,85.80
2017-11-16T06:58:40.825Z,85.80
2017-11-16T07:01:09.717Z,85.20
2017-11-16T07:03:38.629Z,85.20
2017-11-16T07:06:07.540Z,86.00
2017-11-16T07:08:35.688Z,86.00
2017-11-16T07:11:03.827Z,85.70
2017-11-16T07:13:31.977Z,86.60
2017-11-16T07:16:00.869Z,86.60
2017-11-16T07:18:29.001Z,86.60
2017-11-16T07:20:57.129Z,86.90
2017-11-16T07:23:25.288Z,86.80
2017-11-16T07:25:53.414Z,86.60
2017-11-16T07:28:21.558Z,86.20
2017-11-16T07:30:50.469Z,83.70
2017-11-16T07:33:18.595Z,83.70
2017-11-16T07:35:46.730Z,84.80
2017-11-16T07:38:14.858Z,85.00
2017-11-16T07:40:49.570Z,85.20
2017-11-16T07:43:17.823Z,86.00
2017-11-16T07:45:45.970Z,85.00
2017-11-16T07:48:14.098Z,85.30
2017-11-16T07:50:42.226Z,85.10
2017-11-16T07:53:10.372Z,85.70
2017-11-16T07:55:39.278Z,84.80
2017-11-16T07:58:07.425Z,84.80
2017-11-16T08:00:36.312Z,84.50
2017-11-16T08:03:05.231Z,85.50
2017-11-16T08:05:33.366Z,85.50
2017-11-16T08:08:01.510Z,84.90
2017-11-16T08:10:29.670Z,85.60
2017-11-16T08:12:57.805Z,85.90
2017-11-16T08:15:25.954Z,86.80
2017-11-16T08:17:54.845Z,87.60
2017-11-16T08:20:23.763Z,86.20
2017-11-16T08:22:51.887Z,86.20
2017-11-16T08:25:20.045Z,86.60
2017-11-16T08:27:48.190Z,87.30
2017-11-16T08:30:16.327Z,86.80
2017-11-16T08:32:45.227Z,85.80
2017-11-16T08:35:14.125Z,84.70
2017-11-16T08:37:42.349Z,84.70
2017-11-16T08:40:10.477Z,84.70
2017-11-16T08:42:38.625Z,83.40
2017-11-16T08:45:06.738Z,83.30
2017-11-16T08:47:34.898Z,83.40
2017-11-16T08:50:03.786Z,82.50
2017-11-16T08:52:31.917Z,82.50
2017-11-16T08:55:00.102Z,82.40
2017-11-16T08:57:28.246Z,81.60
2017-11-16T08:59:56.371Z,81.50
2017-11-16T09:02:24.506Z,80.80
2017-11-16T09:04:52.638Z,80.30
2017-11-16T09:07:20.810Z,80.70
2017-11-16T09:09:48.947Z,81.30
2017-11-16T09:12:17.864Z,80.40
2017-11-16T09:14:45.977Z,80.20
2017-11-16T09:17:14.130Z,80.40
2017-11-16T09:19:42.256Z,79.90
2017-11-16T09:22:11.153Z,79.50
2017-11-16T09:24:40.067Z,78.90
2017-11-16T09:27:08.244Z,78.90
2017-11-16T09:29:36.392Z,79.60
2017-11-16T09:32:04.517Z,78.50
2017-11-16T09:34:32.678Z,78.10
2017-11-16T09:37:00.801Z,78.20
2017-11-16T09:39:29.813Z,79.20
2017-11-16T09:41:57.940Z,79.20
2017-11-16T09:44:27.585Z,77.70
2017-11-16T09:46:55.714Z,77.60
2017-11-16T09:49:23.869Z,77.20
2017-11-16T09:51:52.027Z,77.40
2017-11-16T09:54:20.145Z,76.80
2017-11-16T09:56:49.046Z,76.10
2017-11-16T09:59:17.942Z,78.00
2017-11-16T10:01:46.130Z,77.40
2017-11-16T10:04:14.303Z,77.40
2017-11-16T10:06:42.425Z,76.30
2017-11-16T10:09:10.572Z,76.40
2017-11-16T10:11:38.698Z,76.90
2017-11-16T10:14:07.618Z,76.00
2017-11-16T10:16:35.812Z,76.00
2017-11-16T10:19:03.940Z,75.80
2017-11-16T10:21:32.845Z,76.40
2017-11-16T10:24:01.775Z,75.90
2017-11-16T10:26:29.965Z,75.90
2017-11-16T10:28:58.082Z,76.40
2017-11-16T10:31:26.288Z,77.00
2017-11-16T10:33:54.465Z,76.40
2017-11-16T10:36:22.589Z,76.20
2017-11-16T10:38:51.499Z,76.60
2017-11-16T10:41:19.629Z,76.30
2017-11-16T10:43:48.042Z,74.50
2017-11-16T10:46:20.811Z,74.80
2017-11-16T10:48:49.777Z,74.50
2017-11-16T10:51:17.913Z,73.90
2017-11-16T10:53:46.055Z,73.80
2017-11-16T10:56:14.972Z,75.60
2017-11-16T10:58:43.144Z,75.60
2017-11-16T11:01:11.282Z,76.00
2017-11-16T11:03:40.229Z,76.60
2017-11-16T11:06:08.402Z,76.50
2017-11-16T11:08:36.553Z,76.00
2017-11-16T11:11:04.698Z,76.10
2017-11-16T11:13:32.827Z,75.80
2017-11-16T11:16:00.983Z,76.50
2017-11-16T11:18:29.118Z,77.00
2017-11-16T11:20:58.003Z,78.00
2017-11-16T11:23:26.914Z,76.50
2017-11-16T11:25:55.041Z,76.50
2017-11-16T11:28:23.182Z,76.10
2017-11-16T11:30:51.334Z,75.70
2017-11-16T11:33:19.500Z,75.60
2017-11-16T11:35:47.625Z,75.70
2017-11-16T11:38:15.774Z,75.50
2017-11-16T11:40:43.910Z,75.40
2017-11-16T11:45:46.772Z,75.40
2017-11-16T11:48:14.916Z,75.80
2017-11-16T11:50:43.057Z,75.50
2017-11-16T11:53:11.178Z,76.70
2017-11-16T11:55:39.339Z,76.00
2017-11-16T11:58:07.446Z,75.50
2017-11-16T12:00:36.349Z,75.00
2017-11-16T12:03:05.270Z,74.90
2017-11-16T12:05:33.409Z,74.90
2017-11-16T12:08:02.331Z,74.60
2017-11-16T12:10:30.498Z,74.50
2017-11-16T12:12:58.650Z,74.00
2017-11-16T12:15:27.540Z,73.70
2017-11-16T12:17:56.480Z,73.60
2017-11-16T12:20:24.638Z,73.50
2017-11-16T12:22:52.768Z,73.20
2017-11-16T12:25:21.674Z,73.30
2017-11-16T12:27:49.836Z,73.30
2017-11-16T12:30:18.739Z,73.50
2017-11-16T12:32:46.870Z,73.50
2017-11-16T12:35:15.012Z,73.30
2017-11-16T12:37:43.150Z,73.20
2017-11-16T12:40:12.091Z,72.70
2017-11-16T12:42:40.218Z,72.60
2017-11-16T12:45:08.357Z,72.30
2017-11-16T12:47:36.487Z,73.00
2017-11-16T12:50:04.628Z,73.30
2017-11-16T12:52:33.534Z,73.30
2017-11-16T12:55:01.687Z,73.30
2017-11-16T12:57:30.598Z,74.10
2017-11-16T12:59:59.388Z,74.10
2017-11-16T13:02:27.520Z,75.50
2017-11-16T13:04:55.659Z,75.50
2017-11-16T13:07:23.785Z,74.80
2017-11-16T13:09:52.687Z,74.80
2017-11-16T13:12:20.877Z,74.80
2017-11-16T13:14:49.038Z,75.00
2017-11-16T13:17:17.191Z,75.00
2017-11-16T13:19:46.098Z,77.00
2017-11-16T13:22:14.220Z,76.90
2017-11-16T13:24:42.376Z,74.30
2017-11-16T13:27:10.510Z,73.60
2017-11-16T13:29:38.667Z,73.60
2017-11-16T13:32:07.571Z,75.60
2017-11-16T13:34:35.718Z,75.60
2017-11-16T13:37:04.637Z,74.50
2017-11-16T13:39:32.777Z,74.50
2017-11-16T13:42:00.988Z,73.10
2017-11-16T13:44:30.047Z,75.40
2017-11-16T13:46:58.184Z,75.30
2017-11-16T13:49:26.331Z,74.10
2017-11-16T13:51:54.477Z,75.30
2017-11-16T13:54:23.386Z,76.00
2017-11-16T13:56:52.390Z,76.00
2017-11-16T13:59:20.542Z,74.80
2017-11-16T14:01:48.721Z,74.50
2017-11-16T14:04:17.637Z,75.30
2017-11-16T14:06:45.776Z,75.30
2017-11-16T14:09:14.669Z,77.00
2017-11-16T14:11:42.790Z,77.00
2017-11-16T14:14:10.950Z,76.60
2017-11-16T14:16:39.061Z,76.70
2017-11-16T14:19:08.069Z,75.60
2017-11-16T14:21:36.978Z,76.00
2017-11-16T14:24:05.145Z,76.00
2017-11-16T14:26:34.036Z,75.60
2017-11-16T14:29:02.970Z,75.70
2017-11-16T14:31:31.094Z,75.70
2017-11-16T14:33:59.217Z,76.60
2017-11-16T14:36:27.379Z,76.40
2017-11-16T14:38:55.503Z,77.60
2017-11-16T14:41:24.434Z,77.80
2017-11-16T14:43:52.564Z,77.80
2017-11-16T14:46:21.474Z,78.80
2017-11-16T14:48:49.603Z,78.80
2017-11-16T14:51:17.774Z,79.90
2017-11-16T14:53:45.900Z,79.30
2017-11-16T14:56:14.041Z,80.10
2017-11-16T14:58:42.927Z,81.30
2017-11-16T15:01:11.847Z,81.80
2017-11-16T15:03:39.983Z,81.80
2017-11-16T15:06:08.866Z,83.90
2017-11-16T15:08:37.083Z,83.40
2017-11-16T15:11:05.244Z,82.60
2017-11-16T15:13:34.146Z,82.70
2017-11-16T15:16:02.291Z,82.70
2017-11-16T15:18:31.192Z,82.80
2017-11-16T15:20:59.338Z,82.70
2017-11-16T15:23:27.473Z,83.00
2017-11-16T15:25:55.615Z,82.50
2017-11-16T15:28:23.778Z,82.30
2017-11-16T15:30:52.022Z,82.80
2017-11-16T15:33:20.166Z,83.20
2017-11-16T15:35:48.303Z,83.60
2017-11-16T15:38:16.471Z,83.90
2017-11-16T15:40:45.371Z,84.80
2017-11-16T15:43:13.531Z,84.80
2017-11-16T15:45:41.671Z,84.00
2017-11-16T15:48:09.827Z,84.20
2017-11-16T15:50:37.967Z,83.60
2017-11-16T15:53:06.118Z,84.10
2017-11-16T15:55:34.255Z,84.10
2017-11-16T15:58:02.432Z,84.10
2017-11-16T16:00:30.553Z,84.50
2017-11-16T16:02:59.454Z,84.00
2017-11-16T16:05:27.643Z,84.00
2017-11-16T16:07:55.772Z,84.00
2017-11-16T16:10:24.696Z,84.60
2017-11-16T16:12:52.864Z,85.10
2017-11-16T16:15:20.976Z,83.90
2017-11-16T16:17:49.131Z,84.40
2017-11-16T16:20:17.252Z,84.30
2017-11-16T16:22:46.197Z,84.70
2017-11-16T16:25:14.331Z,84.70
2017-11-16T16:27:42.504Z,83.70
2017-11-16T16:30:10.643Z,84.30
2017-11-16T16:32:38.795Z,85.10
2017-11-16T16:35:07.702Z,85.00
2017-11-16T16:37:35.877Z,84.60
2017-11-16T16:40:04.831Z,85.60
2017-11-16T16:42:32.987Z,85.50
2017-11-16T16:45:01.131Z,86.00
2017-11-16T16:47:29.325Z,84.90
2017-11-16T16:49:57.502Z,84.60
2017-11-16T16:52:25.650Z,85.20
2017-11-16T16:54:54.581Z,85.60
2017-11-16T16:57:22.745Z,85.60
2017-11-16T16:59:51.656Z,85.90
2017-11-16T17:02:20.084Z,85.80
2017-11-16T17:04:48.237Z,85.70
2017-11-16T17:07:16.395Z,85.60
2017-11-16T17:09:44.540Z,85.30
2017-11-16T17:12:12.699Z,84.60
2017-11-16T17:14:40.825Z,85.70
2017-11-16T17:17:09.768Z,85.10
2017-11-16T17:19:37.909Z,85.10
2017-11-16T17:22:06.811Z,83.70
2017-11-16T17:24:35.012Z,83.70
2017-11-16T17:27:03.127Z,83.80
2017-11-16T17:29:32.053Z,82.80
2017-11-16T17:32:00.204Z,82.80
2017-11-16T17:34:29.102Z,83.70
2017-11-16T17:36:57.311Z,83.70
2017-11-16T17:39:25.490Z,83.60
2017-11-16T17:41:53.654Z,83.90
2017-11-16T17:44:21.942Z,84.30
2017-11-16T17:46:50.079Z,84.20
2017-11-16T17:49:19.309Z,83.20
2017-11-16T17:51:47.484Z,83.20
2017-11-16T17:54:15.632Z,82.80
2017-11-16T17:56:43.803Z,83.30
2017-11-16T17:59:11.935Z,83.20
2017-11-16T18:01:40.856Z,84.00
2017-11-16T18:04:09.073Z,84.00
2017-11-16T18:06:37.200Z,83.90
2017-11-16T18:09:05.355Z,83.70
2017-11-16T18:11:34.254Z,83.30
2017-11-16T18:14:02.562Z,82.70
2017-11-16T18:16:30.682Z,82.50
2017-11-16T18:18:59.630Z,82.90
2017-11-16T18:21:27.790Z,82.70
2017-11-16T18:23:56.075Z,83.20
2017-11-16T18:26:24.213Z,83.10
2017-11-16T18:28:53.169Z,83.00
2017-11-16T18:31:21.367Z,82.90
2017-11-16T18:33:50.276Z,83.00
2017-11-16T18:36:18.469Z,83.50
2017-11-16T18:38:46.647Z,84.30
2017-11-16T18:41:14.856Z,84.20
2017-11-16T18:43:43.154Z,84.50
2017-11-16T18:46:12.115Z,83.80
2017-11-16T18:48:40.265Z,83.80
2017-11-16T18:51:08.423Z,83.40
2017-11-16T18:53:36.559Z,83.10
2017-11-16T18:56:05.561Z,83.50
2017-11-16T18:58:33.689Z,83.50
2017-11-16T19:01:02.609Z,83.80
2017-11-16T19:03:30.763Z,83.30
2017-11-16T19:05:58.876Z,84.60
2017-11-16T19:08:27.047Z,84.30
2017-11-16T19:10:55.939Z,84.00
2017-11-16T19:13:24.092Z,84.00
2017-11-16T19:15:52.209Z,83.70
2017-11-16T19:18:21.131Z,83.60
2017-11-16T19:20:49.289Z,83.60
2017-11-16T19:23:17.430Z,83.80
2017-11-16T19:25:45.582Z,84.10
2017-11-16T19:28:14.496Z,84.10
2017-11-16T19:30:42.674Z,84.00
2017-11-16T19:33:10.820Z,84.10
2017-11-16T19:35:39.719Z,83.50
2017-11-16T19:38:07.873Z,83.50
2017-11-16T19:40:36.783Z,84.80
2017-11-16T19:43:04.929Z,84.90
2017-11-16T19:45:33.074Z,84.50
2017-11-16T19:48:01.243Z,86.50
2017-11-16T19:50:29.387Z,85.70
2017-11-16T19:52:57.532Z,86.00
2017-11-16T19:55:26.447Z,85.20
2017-11-16T19:57:54.610Z,85.10
2017-11-16T20:00:23.527Z,84.00
2017-11-16T20:02:51.682Z,84.00
2017-11-16T20:05:20.607Z,84.20
2017-11-16T20:07:48.772Z,84.20
2017-11-16T20:10:16.920Z,83.60
2017-11-16T20:12:45.107Z,83.50
2017-11-16T20:15:13.258Z,83.60
2017-11-16T20:17:42.169Z,83.90
2017-11-16T20:20:10.317Z,83.90
2017-11-16T20:22:38.614Z,84.10
2017-11-16T20:25:07.522Z,84.30
2017-11-16T20:27:35.682Z,84.20
2017-11-16T20:30:03.823Z,83.90
2017-11-16T20:32:32.048Z,84.20
2017-11-16T20:35:00.187Z,85.00
2017-11-16T20:37:43.237Z,84.80
2017-11-16T20:40:17.304Z,84.50
2017-11-16T20:42:56.181Z,84.80
2017-11-16T20:45:40.133Z,84.90
2017-11-16T20:48:13.949Z,84.90
2017-11-16T20:50:48.595Z,85.30
2017-11-16T20:53:20.003Z,84.80
2017-11-16T20:55:48.157Z,84.80
2017-11-16T20:58:16.316Z,84.40
2017-11-16T21:00:45.205Z,83.70
2017-11-16T21:03:13.370Z,83.60
2017-11-16T21:05:41.530Z,84.50
2017-11-16T21:08:09.679Z,84.50
2017-11-16T21:10:37.830Z,84.10
2017-11-16T21:13:05.966Z,84.60
2017-11-16T21:15:34.107Z,84.90
2017-11-16T21:18:03.027Z,84.80
2017-11-16T21:23:06.666Z,84.80
2017-11-16T21:25:34.824Z,84.80
2017-11-16T21:28:02.949Z,85.00
2017-11-16T21:30:31.868Z,85.30
2017-11-16T21:33:00.003Z,85.20
2017-11-16T21:35:28.175Z,84.80
2017-11-16T21:37:56.327Z,85.00
2017-11-16T21:40:24.453Z,85.10
2017-11-16T21:42:52.640Z,84.90
2017-11-16T21:45:20.781Z,84.90
2017-11-16T21:47:49.739Z,84.50
2017-11-16T21:50:17.875Z,84.40
2017-11-16T21:52:46.016Z,84.60
2017-11-16T21:55:14.937Z,85.30
2017-11-16T21:57:43.089Z,85.20
2017-11-16T22:00:12.128Z,85.10
2017-11-16T22:02:40.259Z,85.00
2017-11-16T22:05:08.431Z,85.20
2017-11-16T22:07:37.345Z,85.50
2017-11-16T22:10:05.490Z,85.50
2017-11-16T22:12:34.381Z,85.50
2017-11-16T22:15:02.547Z,85.40
2017-11-16T22:17:31.439Z,85.80
2017-11-16T22:20:00.352Z,85.30
2017-11-16T22:22:28.483Z,85.20
2017-11-16T22:24:56.641Z,85.30
2017-11-16T22:27:24.804Z,85.50
2017-11-16T22:29:52.939Z,85.10
2017-11-16T22:32:21.172Z,85.50
2017-11-16T22:34:49.320Z,85.50
2017-11-16T22:37:17.460Z,85.70
2017-11-16T22:39:45.662Z,85.20
2017-11-16T22:42:13.809Z,84.60
2017-11-16T22:44:41.940Z,85.20
2017-11-16T22:47:10.862Z,84.70
2017-11-16T22:49:39.043Z,85.00
2017-11-16T22:52:07.162Z,85.00
2017-11-16T22:54:35.288Z,84.70
2017-11-16T22:57:03.422Z,84.70
2017-11-16T22:59:32.364Z,84.80
2017-11-16T23:02:00.512Z,84.70
2017-11-16T23:04:29.424Z,84.50
2017-11-16T23:06:57.598Z,84.50
2017-11-16T23:09:25.729Z,85.70
2017-11-16T23:11:54.622Z,86.20
2017-11-16T23:14:23.529Z,85.70
2017-11-16T23:16:52.425Z,85.00
2017-11-16T23:19:20.557Z,85.00
2017-11-16T23:24:23.914Z,85.30
2017-11-16T23:26:52.783Z,85.30
2017-11-16T23:29:21.665Z,85.10
2017-11-16T23:31:50.569Z,85.30
2017-11-16T23:34:19.472Z,85.50
2017-11-16T23:36:47.621Z,85.40
2017-11-16T23:39:16.518Z,85.10
2017-11-16T23:41:44.648Z,85.00
2017-11-16T23:44:12.812Z,85.00
2017-11-16T23:46:40.937Z,85.40
2017-11-16T23:49:09.061Z,85.30
2017-11-16T23:51:37.181Z,86.40
2017-11-16T23:54:05.329Z,87.00
2017-11-16T23:56:33.462Z,86.90
2017-11-16T23:59:01.605Z,86.60
